Time,TemperatureF,DewpointF,PressureIn,WindDirection,WindDirectionDegrees,WindSpeedMPH,WindSpeedGustMPH,Humidity,HourlyPrecipIn,Conditions,Clouds,dailyrainin,SoftwareType,DateUTC
2013-03-05 00:09:00,41.3,28.0,29.97,SE,134,0.0,-999.0,60,-99.99,,,0.02,weatherlink.com 1.10,2013-03-05 05:09:00,
2013-03-05 00:24:00,41.1,28.0,29.97,SE,134,0.0,-999.0,59,-99.99,,,0.02,weatherlink.com 1.10,2013-03-05 05:24:00,
2013-03-05 00:39:00,41.3,29.0,29.95,SE,134,0.0,-999.0,61,-99.99,,,0.02,weatherlink.com 1.10,2013-03-05 05:39:00,
2013-03-05 00:54:00,42.1,28.0,29.95,SE,135,0.0,-999.0,58,-99.99,,,0.02,weatherlink.com 1.10,2013-03-05 05:54:00,
2013-03-05 01:09:00,41.9,29.0,29.94,SE,135,0.0,-999.0,60,-99.99,,,0.02,weatherlink.com 1.10,2013-03-05 06:09:00,
2013-03-05 01:24:00,42.0,28.0,29.94,SE,134,0.0,-999.0,59,-99.99,,,0.00,weatherlink.com 1.10,2013-03-05 06:24:00,
2013-03-05 01:39:00,42.2,28.0,29.93,SE,130,4.0,-999.0,58,-99.99,,,0.00,weatherlink.com 1.10,2013-03-05 06:39:00,
2013-03-05 01:54:00,42.6,28.0,29.93,SE,130,6.0,-999.0,57,-99.99,,,0.00,weatherlink.com 1.10,2013-03-05 06:54:00,
2013-03-05 02:09:00,42.4,29.0,29.93,SE,130,0.0,-999.0,59,-99.99,,,0.00,weatherlink.com 1.10,2013-03-05 07:09:00,
2013-03-05 02:24:00,42.1,29.0,29.92,SE,130,0.0,-999.0,60,-99.99,,,0.00,weatherlink.com 1.10,2013-03-05 07:24:00,
2013-03-05 02:39:00,42.0,28.0,29.91,SE,130,0.0,-999.0,59,-99.99,,,0.00,weatherlink.com 1.10,2013-03-05 07:39:00,
2013-03-05 02:54:00,42.0,29.0,29.91,SE,130,0.0,-999.0,60,-99.99,,,0.00,weatherlink.com 1.10,2013-03-05 07:54:00,
2013-03-05 03:09:00,41.8,29.0,29.90,SE,130,0.0,-999.0,61,-99.99,,,0.00,weatherlink.com 1.10,2013-03-05 08:09:00,
2013-03-05 03:24:00,41.6,29.0,29.90,SE,130,0.0,-999.0,61,-99.99,,,0.00,weatherlink.com 1.10,2013-03-05 08:24:00,
2013-03-05 03:39:00,41.4,29.0,29.89,SE,130,0.0,-999.0,62,-99.99,,,0.00,weatherlink.com 1.10,2013-03-05 08:39:00,
2013-03-05 03:54:00,41.0,29.0,29.88,SE,130,0.0,-999.0,63,-99.99,,,0.00,weatherlink.com 1.10,2013-03-05 08:54:00,
2013-03-05 04:09:00,41.0,29.0,29.88,SE,130,0.0,-999.0,63,-99.99,,,0.00,weatherlink.com 1.10,2013-03-05 09:09:00,
2013-03-05 04:24:00,40.9,29.0,29.88,SE,130,0.0,-999.0,64,-99.99,,,0.00,weatherlink.com 1.10,2013-03-05 09:24:00,
2013-03-05 04:39:00,40.7,29.0,29.87,SE,130,0.0,-999.0,64,-99.99,,,0.00,weatherlink.com 1.10,2013-03-05 09:39:00,
2013-03-05 04:54:00,40.9,29.0,29.88,SE,130,0.0,-999.0,63,-99.99,,,0.00,weatherlink.com 1.10,2013-03-05 09:54:00,
2013-03-05 05:09:00,41.1,29.0,29.88,SE,130,0.0,-999.0,63,-99.99,,,0.00,weatherlink.com 1.10,2013-03-05 10:09:00,
2013-03-05 05:24:00,41.4,30.0,29.88,SE,130,0.0,-999.0,64,-99.99,,,0.00,weatherlink.com 1.10,2013-03-05 10:24:00,
2013-03-05 05:39:00,41.7,32.0,29.88,SE,130,0.0,-999.0,69,-99.99,,,0.00,weatherlink.com 1.10,2013-03-05 10:39:00,
2013-03-05 05:54:00,40.7,33.0,29.89,SE,130,0.0,-999.0,75,-99.99,,,0.01,weatherlink.com 1.10,2013-03-05 10:54:00,
2013-03-05 06:09:00,39.8,35.0,29.89,SE,130,0.0,-999.0,82,-99.99,,,0.02,weatherlink.com 1.10,2013-03-05 11:09:00,
2013-03-05 06:24:00,39.2,35.0,29.89,SE,130,0.0,-999.0,86,-99.99,,,0.03,weatherlink.com 1.10,2013-03-05 11:24:00,
2013-03-05 06:39:00,38.9,36.0,29.89,SE,130,0.0,-999.0,88,-99.99,,,0.03,weatherlink.com 1.10,2013-03-05 11:39:00,
2013-03-05 06:54:00,38.7,36.0,29.88,SE,130,0.0,-999.0,89,-99.99,,,0.04,weatherlink.com 1.10,2013-03-05 11:54:00,
2013-03-05 07:09:00,38.6,36.0,29.87,SE,130,0.0,-999.0,89,-99.99,,,0.04,weatherlink.com 1.10,2013-03-05 12:09:00,
2013-03-05 07:24:00,38.5,36.0,29.86,SE,130,0.0,-999.0,90,-99.99,,,0.05,weatherlink.com 1.10,2013-03-05 12:24:00,
2013-03-05 07:39:00,38.4,36.0,29.86,SE,130,0.0,-999.0,90,-99.99,,,0.05,weatherlink.com 1.10,2013-03-05 12:39:00,
2013-03-05 07:54:00,38.6,36.0,29.86,SE,130,0.0,-999.0,90,-99.99,,,0.05,weatherlink.com 1.10,2013-03-05 12:54:00,
2013-03-05 08:09:00,38.8,36.0,29.85,SE,130,0.0,-999.0,91,-99.99,,,0.06,weatherlink.com 1.10,2013-03-05 13:09:00,
2013-03-05 08:24:00,39.1,37.0,29.86,SE,130,0.0,-999.0,91,-99.99,,,0.06,weatherlink.com 1.10,2013-03-05 13:24:00,
2013-03-05 08:40:00,39.6,38.0,29.84,SE,130,0.0,-999.0,92,-99.99,,,0.06,weatherlink.com 1.10,2013-03-05 13:40:00,
2013-03-05 08:55:00,40.1,38.0,29.84,SE,131,1.0,-999.0,92,-99.99,,,0.06,weatherlink.com 1.10,2013-03-05 13:55:00,
2013-03-05 09:10:00,40.9,39.0,29.83,SE,131,0.0,-999.0,92,-99.99,,,0.06,weatherlink.com 1.10,2013-03-05 14:10:00,
2013-03-05 09:25:00,41.0,39.0,29.83,SE,138,0.0,-999.0,91,-99.99,,,0.06,weatherlink.com 1.10,2013-03-05 14:25:00,
2013-03-05 09:40:00,41.5,39.0,29.82,SE,138,0.0,-999.0,92,-99.99,,,0.07,weatherlink.com 1.10,2013-03-05 14:40:00,
2013-03-05 09:55:00,41.9,40.0,29.81,SE,138,0.0,-999.0,92,-99.99,,,0.10,weatherlink.com 1.10,2013-03-05 14:55:00,
2013-03-05 10:10:00,42.1,40.0,29.81,SE,138,0.0,-999.0,92,-99.99,,,0.14,weatherlink.com 1.10,2013-03-05 15:10:00,
2013-03-05 10:25:00,42.2,40.0,29.80,SE,138,0.0,-999.0,93,-99.99,,,0.18,weatherlink.com 1.10,2013-03-05 15:25:00,
2013-03-05 10:40:00,42.7,41.0,29.79,SE,132,0.0,-999.0,93,-99.99,,,0.20,weatherlink.com 1.10,2013-03-05 15:40:00,
2013-03-05 10:55:00,42.8,41.0,29.78,SE,132,4.0,-999.0,93,-99.99,,,0.22,weatherlink.com 1.10,2013-03-05 15:55:00,
2013-03-05 11:10:00,43.0,41.0,29.77,SE,138,4.0,-999.0,93,-99.99,,,0.23,weatherlink.com 1.10,2013-03-05 16:10:00,
2013-03-05 11:25:00,43.3,42.0,29.75,SE,129,0.0,-999.0,93,-99.99,,,0.23,weatherlink.com 1.10,2013-03-05 16:25:00,
2013-03-05 11:40:00,43.9,42.0,29.74,SE,137,5.0,-999.0,94,-99.99,,,0.23,weatherlink.com 1.10,2013-03-05 16:40:00,
2013-03-05 11:55:00,44.3,43.0,29.72,SE,139,1.0,-999.0,94,-99.99,,,0.23,weatherlink.com 1.10,2013-03-05 16:55:00,
2013-03-05 12:10:00,44.7,43.0,29.71,SE,136,4.0,-999.0,94,-99.99,,,0.23,weatherlink.com 1.10,2013-03-05 17:10:00,
2013-03-05 12:25:00,45.3,44.0,29.70,SE,137,0.0,-999.0,94,-99.99,,,0.23,weatherlink.com 1.10,2013-03-05 17:25:00,
2013-03-05 12:40:00,45.9,44.0,29.70,SE,140,2.0,-999.0,94,-99.99,,,0.23,weatherlink.com 1.10,2013-03-05 17:40:00,
2013-03-05 12:55:00,46.2,45.0,29.68,SE,132,1.0,-999.0,94,-99.99,,,0.24,weatherlink.com 1.10,2013-03-05 17:55:00,
2013-03-05 13:10:00,46.7,45.0,29.67,SE,138,0.0,-999.0,94,-99.99,,,0.26,weatherlink.com 1.10,2013-03-05 18:10:00,
2013-03-05 13:25:00,46.8,45.0,29.67,SE,140,0.0,-999.0,94,-99.99,,,0.31,weatherlink.com 1.10,2013-03-05 18:25:00,
2013-03-05 13:40:00,47.0,45.0,29.65,SE,138,6.0,-999.0,94,-99.99,,,0.39,weatherlink.com 1.10,2013-03-05 18:40:00,
2013-03-05 13:55:00,47.2,46.0,29.63,SE,134,0.0,-999.0,94,-99.99,,,0.41,weatherlink.com 1.10,2013-03-05 18:55:00,
2013-03-05 14:11:00,47.5,46.0,29.61,SE,133,0.0,-999.0,94,-99.99,,,0.42,weatherlink.com 1.10,2013-03-05 19:11:00,
2013-03-05 14:26:00,47.9,46.0,29.60,SE,133,0.0,-999.0,94,-99.99,,,0.43,weatherlink.com 1.10,2013-03-05 19:26:00,
2013-03-05 14:41:00,48.3,47.0,29.59,SE,133,0.0,-999.0,94,-99.99,,,0.44,weatherlink.com 1.10,2013-03-05 19:41:00,
2013-03-05 14:56:00,48.4,47.0,29.57,SE,136,1.0,-999.0,94,-99.99,,,0.46,weatherlink.com 1.10,2013-03-05 19:56:00,
2013-03-05 15:11:00,48.4,47.0,29.56,SE,136,0.0,-999.0,94,-99.99,,,0.48,weatherlink.com 1.10,2013-03-05 20:11:00,
2013-03-05 15:26:00,48.5,47.0,29.57,SE,136,0.0,-999.0,94,-99.99,,,0.49,weatherlink.com 1.10,2013-03-05 20:26:00,
2013-03-05 15:41:00,48.4,47.0,29.55,SE,136,0.0,-999.0,94,-99.99,,,0.50,weatherlink.com 1.10,2013-03-05 20:41:00,
2013-03-05 15:56:00,48.5,47.0,29.54,SE,135,2.0,-999.0,94,-99.99,,,0.52,weatherlink.com 1.10,2013-03-05 20:56:00,
2013-03-05 16:11:00,48.9,47.0,29.54,SE,134,6.0,-999.0,94,-99.99,,,0.52,weatherlink.com 1.10,2013-03-05 21:11:00,
2013-03-05 16:26:00,48.8,47.0,29.52,SE,134,2.0,-999.0,94,-99.99,,,0.54,weatherlink.com 1.10,2013-03-05 21:26:00,
2013-03-05 16:41:00,49.0,47.0,29.52,SE,134,0.0,-999.0,94,-99.99,,,0.56,weatherlink.com 1.10,2013-03-05 21:41:00,
2013-03-05 16:56:00,49.1,48.0,29.52,SE,134,0.0,-999.0,94,-99.99,,,0.61,weatherlink.com 1.10,2013-03-05 21:56:00,
2013-03-05 17:11:00,49.1,48.0,29.52,SE,134,0.0,-999.0,94,-99.99,,,0.64,weatherlink.com 1.10,2013-03-05 22:11:00,
2013-03-05 17:26:00,49.0,47.0,29.52,SE,134,0.0,-999.0,94,-99.99,,,0.74,weatherlink.com 1.10,2013-03-05 22:26:00,
2013-03-05 17:41:00,48.8,47.0,29.52,SE,134,0.0,-999.0,94,-99.99,,,0.82,weatherlink.com 1.10,2013-03-05 22:41:00,
2013-03-05 17:56:00,48.9,47.0,29.53,West,278,4.0,-999.0,94,-99.99,,,0.87,weatherlink.com 1.10,2013-03-05 22:56:00,
2013-03-05 18:11:00,49.2,48.0,29.53,West,276,10.0,-999.0,94,-99.99,,,0.89,weatherlink.com 1.10,2013-03-05 23:11:00,
2013-03-05 18:26:00,45.1,42.0,29.57,West,279,16.0,-999.0,89,-99.99,,,0.91,weatherlink.com 1.10,2013-03-05 23:26:00,
2013-03-05 18:41:00,42.6,40.0,29.59,West,276,17.0,-999.0,89,-99.99,,,0.92,weatherlink.com 1.10,2013-03-05 23:41:00,
2013-03-05 18:56:00,40.6,37.0,29.62,West,261,10.0,-999.0,88,-99.99,,,0.94,weatherlink.com 1.10,2013-03-05 23:56:00,
2013-03-05 19:11:00,38.2,35.0,29.65,WNW,302,13.0,-999.0,88,-99.99,,,0.96,weatherlink.com 1.10,2013-03-06 00:11:00,
2013-03-05 19:26:00,36.4,34.0,29.66,West,271,6.0,-999.0,90,-99.99,,,0.98,weatherlink.com 1.10,2013-03-06 00:26:00,
2013-03-05 19:41:00,35.3,33.0,29.68,West,274,7.0,-999.0,91,-99.99,,,0.98,weatherlink.com 1.10,2013-03-06 00:41:00,
2013-03-05 19:56:00,34.8,33.0,29.70,WNW,286,8.0,-999.0,91,-99.99,,,0.98,weatherlink.com 1.10,2013-03-06 00:56:00,
2013-03-05 20:11:00,34.3,32.0,29.71,SW,234,3.0,-999.0,92,-99.99,,,0.98,weatherlink.com 1.10,2013-03-06 01:11:00,
2013-03-05 20:26:00,34.2,32.0,29.72,WNW,286,7.0,-999.0,93,-99.99,,,0.98,weatherlink.com 1.10,2013-03-06 01:26:00,
2013-03-05 20:41:00,34.6,32.0,29.72,WNW,282,8.0,-999.0,90,-99.99,,,0.98,weatherlink.com 1.10,2013-03-06 01:41:00,
2013-03-05 20:56:00,34.7,32.0,29.73,WNW,290,16.0,-999.0,90,-99.99,,,0.98,weatherlink.com 1.10,2013-03-06 01:56:00,
2013-03-05 21:11:00,34.8,31.0,29.73,West,281,5.0,-999.0,87,-99.99,,,0.98,weatherlink.com 1.10,2013-03-06 02:11:00,
2013-03-05 21:26:00,34.7,31.0,29.73,WNW,302,14.0,-999.0,87,-99.99,,,0.98,weatherlink.com 1.10,2013-03-06 02:26:00,
2013-03-05 21:41:00,34.6,31.0,29.74,WNW,282,9.0,-999.0,86,-99.99,,,0.98,weatherlink.com 1.10,2013-03-06 02:41:00,
2013-03-05 21:56:00,34.3,31.0,29.75,NW,320,6.0,-999.0,87,-99.99,,,0.98,weatherlink.com 1.10,2013-03-06 02:56:00,
2013-03-05 22:11:00,34.1,31.0,29.75,West,277,14.0,-999.0,87,-99.99,,,0.98,weatherlink.com 1.10,2013-03-06 03:11:00,
2013-03-05 22:26:00,34.0,30.0,29.75,WNW,293,17.0,-999.0,86,-99.99,,,0.98,weatherlink.com 1.10,2013-03-06 03:26:00,
2013-03-05 22:41:00,33.9,30.0,29.75,West,281,17.0,-999.0,86,-99.99,,,0.98,weatherlink.com 1.10,2013-03-06 03:41:00,
2013-03-05 22:57:00,33.9,30.0,29.75,West,281,8.0,-999.0,86,-99.99,,,0.98,weatherlink.com 1.10,2013-03-06 03:57:00,
2013-03-05 23:12:00,33.6,30.0,29.75,West,265,17.0,-999.0,88,-99.99,,,0.98,weatherlink.com 1.10,2013-03-06 04:12:00,
2013-03-05 23:27:00,33.3,30.0,29.76,West,279,12.0,-999.0,88,-99.99,,,0.98,weatherlink.com 1.10,2013-03-06 04:27:00,
2013-03-05 23:42:00,32.9,30.0,29.76,NW,311,10.0,-999.0,88,-99.99,,,0.98,weatherlink.com 1.10,2013-03-06 04:42:00,
2013-03-05 23:57:00,32.5,29.0,29.76,WNW,294,14.0,-999.0,88,-99.99,,,0.98,weatherlink.com 1.10,2013-03-06 04:57:00,